sensor_id;sensor_type;location;lat;lon;timestamp;pressure;altitude;pressure_sealevel;temperature;humidity
47082;BME280;33066;49.296;14.470;2023-03-03T00:00:47;97118.26;;;8.13;32.66
47082;BME280;33066;49.296;14.470;2023-03-03T00:03:16;97119.92;;;8.06;32.66
47082;BME280;33066;49.296;14.470;2023-03-03T00:05:38;97119.48;;;7.99;32.75
47082;BME280;33066;49.296;14.470;2023-03-03T00:08:04;97122.89;;;8.06;32.74
47082;BME280;33066;49.296;14.470;2023-03-03T00:10:29;97122.51;;;8.18;32.71
47082;BME280;33066;49.296;14.470;2023-03-03T00:12:54;97120.35;;;8.07;32.54
47082;BME280;33066;49.296;14.470;2023-03-03T00:15:21;97118.96;;;7.94;32.67
47082;BME280;33066;49.296;14.470;2023-03-03T00:17:45;97119.56;;;8.06;32.70
47082;BME280;33066;49.296;14.470;2023-03-03T00:20:26;97121.97;;;8.14;32.64
47082;BME280;33066;49.296;14.470;2023-03-03T00:22:36;97118.45;;;7.90;32.59
47082;BME280;33066;49.296;14.470;2023-03-03T00:27:29;97118.76;;;8.02;32.65
47082;BME280;33066;49.296;14.470;2023-03-03T00:29:54;97122.78;;;7.71;33.00
47082;BME280;33066;49.296;14.470;2023-03-03T00:32:22;97120.94;;;7.59;33.15
47082;BME280;33066;49.296;14.470;2023-03-03T00:34:45;97122.01;;;7.68;33.02
47082;BME280;33066;49.296;14.470;2023-03-03T00:37:20;97120.08;;;8.03;32.87
47082;BME280;33066;49.296;14.470;2023-03-03T00:39:35;97121.12;;;7.52;33.07
47082;BME280;33066;49.296;14.470;2023-03-03T00:42:01;97121.73;;;7.55;33.04
47082;BME280;33066;49.296;14.470;2023-03-03T00:44:39;97122.03;;;7.73;32.85
47082;BME280;33066;49.296;14.470;2023-03-03T00:46:53;97124.77;;;7.70;32.74
47082;BME280;33066;49.296;14.470;2023-03-03T00:49:23;97130.48;;;7.69;33.06
47082;BME280;33066;49.296;14.470;2023-03-03T00:51:43;97126.86;;;7.45;33.00
47082;BME280;33066;49.296;14.470;2023-03-03T00:54:08;97129.69;;;7.53;32.89
47082;BME280;33066;49.296;14.470;2023-03-03T00:56:34;97130.96;;;7.59;32.79
47082;BME280;33066;49.296;14.470;2023-03-03T00:58:59;97127.81;;;7.49;32.79
47082;BME280;33066;49.296;14.470;2023-03-03T01:01:25;97120.68;;;7.63;32.91
47082;BME280;33066;49.296;14.470;2023-03-03T01:03:50;97114.50;;;7.33;32.95
47082;BME280;33066;49.296;14.470;2023-03-03T01:06:15;97107.41;;;7.38;32.92
47082;BME280;33066;49.296;14.470;2023-03-03T01:08:41;97103.05;;;7.28;33.03
47082;BME280;33066;49.296;14.470;2023-03-03T01:11:10;97101.16;;;7.32;33.03
47082;BME280;33066;49.296;14.470;2023-03-03T01:13:33;97105.78;;;7.40;32.95
47082;BME280;33066;49.296;14.470;2023-03-03T01:15:58;97110.97;;;7.55;32.95
47082;BME280;33066;49.296;14.470;2023-03-03T01:18:22;97108.96;;;7.71;32.81
47082;BME280;33066;49.296;14.470;2023-03-03T01:20:47;97104.83;;;7.69;32.65
47082;BME280;33066;49.296;14.470;2023-03-03T01:23:12;97107.63;;;7.63;32.62
47082;BME280;33066;49.296;14.470;2023-03-03T01:25:38;97104.37;;;7.50;32.59
47082;BME280;33066;49.296;14.470;2023-03-03T01:28:04;97105.21;;;7.32;32.82
47082;BME280;33066;49.296;14.470;2023-03-03T01:30:29;97104.09;;;7.16;32.89
47082;BME280;33066;49.296;14.470;2023-03-03T01:32:53;97104.78;;;6.94;33.36
47082;BME280;33066;49.296;14.470;2023-03-03T01:35:19;97106.56;;;6.91;33.52
47082;BME280;33066;49.296;14.470;2023-03-03T01:37:45;97106.61;;;7.38;33.39
47082;BME280;33066;49.296;14.470;2023-03-03T01:40:15;97104.55;;;7.17;33.45
47082;BME280;33066;49.296;14.470;2023-03-03T01:42:36;97103.72;;;7.42;33.18
47082;BME280;33066;49.296;14.470;2023-03-03T01:45:13;97103.93;;;7.00;33.20
47082;BME280;33066;49.296;14.470;2023-03-03T01:47:28;97104.30;;;7.27;33.22
47082;BME280;33066;49.296;14.470;2023-03-03T01:49:56;97105.59;;;7.12;33.26
47082;BME280;33066;49.296;14.470;2023-03-03T01:52:23;97105.42;;;7.28;33.35
47082;BME280;33066;49.296;14.470;2023-03-03T01:54:46;97104.68;;;7.17;33.20
47082;BME280;33066;49.296;14.470;2023-03-03T01:57:12;97105.57;;;7.27;33.12
47082;BME280;33066;49.296;14.470;2023-03-03T01:59:37;97101.29;;;7.36;33.15
47082;BME280;33066;49.296;14.470;2023-03-03T02:02:00;97101.42;;;7.28;33.10
47082;BME280;33066;49.296;14.470;2023-03-03T02:04:26;97099.74;;;7.38;32.97
47082;BME280;33066;49.296;14.470;2023-03-03T02:06:54;97101.11;;;7.37;32.92
47082;BME280;33066;49.296;14.470;2023-03-03T02:09:22;97096.87;;;7.45;32.71
47082;BME280;33066;49.296;14.470;2023-03-03T02:11:43;97101.37;;;7.29;32.65
47082;BME280;33066;49.296;14.470;2023-03-03T02:14:08;97103.99;;;7.17;32.73
47082;BME280;33066;49.296;14.470;2023-03-03T02:16:33;97106.46;;;7.13;33.00
47082;BME280;33066;49.296;14.470;2023-03-03T02:18:58;97107.44;;;6.85;33.14
47082;BME280;33066;49.296;14.470;2023-03-03T02:21:25;97106.65;;;7.30;33.35
47082;BME280;33066;49.296;14.470;2023-03-03T02:23:54;97103.70;;;7.10;33.14
47082;BME280;33066;49.296;14.470;2023-03-03T02:26:16;97105.56;;;7.21;32.89
47082;BME280;33066;49.296;14.470;2023-03-03T02:28:41;97102.16;;;6.59;32.98
47082;BME280;33066;49.296;14.470;2023-03-03T02:31:08;97098.77;;;7.21;32.92
47082;BME280;33066;49.296;14.470;2023-03-03T02:33:32;97097.54;;;6.81;32.99
47082;BME280;33066;49.296;14.470;2023-03-03T02:35:58;97099.20;;;6.60;33.17
47082;BME280;33066;49.296;14.470;2023-03-03T02:38:26;97097.38;;;6.76;33.40
47082;BME280;33066;49.296;14.470;2023-03-03T02:40:58;97096.97;;;6.40;33.63
47082;BME280;33066;49.296;14.470;2023-03-03T02:43:16;97095.81;;;6.56;33.57
47082;BME280;33066;49.296;14.470;2023-03-03T02:45:42;97097.10;;;6.75;33.50
47082;BME280;33066;49.296;14.470;2023-03-03T02:48:05;97098.82;;;6.43;33.45
47082;BME280;33066;49.296;14.470;2023-03-03T02:50:30;97103.97;;;6.58;33.45
47082;BME280;33066;49.296;14.470;2023-03-03T02:52:56;97102.18;;;6.50;33.57
47082;BME280;33066;49.296;14.470;2023-03-03T02:55:21;97103.15;;;6.56;33.49
47082;BME280;33066;49.296;14.470;2023-03-03T02:57:47;97097.19;;;6.83;33.28
47082;BME280;33066;49.296;14.470;2023-03-03T03:00:13;97098.56;;;6.88;33.07
47082;BME280;33066;49.296;14.470;2023-03-03T03:02:38;97099.24;;;6.59;33.35
47082;BME280;33066;49.296;14.470;2023-03-03T03:05:04;97097.75;;;6.51;34.11
47082;BME280;33066;49.296;14.470;2023-03-03T03:07:29;97096.19;;;6.51;33.78
47082;BME280;33066;49.296;14.470;2023-03-03T03:09:55;97095.83;;;6.36;34.34
47082;BME280;33066;49.296;14.470;2023-03-03T03:12:20;97094.86;;;6.50;34.34
47082;BME280;33066;49.296;14.470;2023-03-03T03:14:46;97091.06;;;6.55;34.42
47082;BME280;33066;49.296;14.470;2023-03-03T03:17:11;97094.78;;;6.81;34.14
47082;BME280;33066;49.296;14.470;2023-03-03T03:19:37;97097.92;;;6.56;34.08
47082;BME280;33066;49.296;14.470;2023-03-03T03:22:02;97094.87;;;6.47;34.89
47082;BME280;33066;49.296;14.470;2023-03-03T03:24:28;97094.80;;;6.88;34.37
47082;BME280;33066;49.296;14.470;2023-03-03T03:26:54;97094.10;;;6.73;33.84
47082;BME280;33066;49.296;14.470;2023-03-03T03:29:19;97092.86;;;6.63;33.63
47082;BME280;33066;49.296;14.470;2023-03-03T03:31:45;97099.78;;;6.65;33.72
47082;BME280;33066;49.296;14.470;2023-03-03T03:34:11;97100.77;;;6.82;33.80
47082;BME280;33066;49.296;14.470;2023-03-03T03:36:36;97100.95;;;6.72;33.63
47082;BME280;33066;49.296;14.470;2023-03-03T03:39:02;97102.00;;;6.76;33.51
47082;BME280;33066;49.296;14.470;2023-03-03T03:41:27;97103.28;;;6.80;33.34
47082;BME280;33066;49.296;14.470;2023-03-03T03:43:52;97107.08;;;6.48;33.33
47082;BME280;33066;49.296;14.470;2023-03-03T03:46:18;97107.45;;;6.56;33.69
47082;BME280;33066;49.296;14.470;2023-03-03T03:48:43;97103.64;;;6.70;33.55
47082;BME280;33066;49.296;14.470;2023-03-03T03:51:10;97105.60;;;6.53;33.63
47082;BME280;33066;49.296;14.470;2023-03-03T03:53:34;97106.03;;;6.24;33.77
47082;BME280;33066;49.296;14.470;2023-03-03T03:56:00;97109.34;;;6.49;34.03
47082;BME280;33066;49.296;14.470;2023-03-03T03:58:25;97105.80;;;5.91;34.33
47082;BME280;33066;49.296;14.470;2023-03-03T04:00:50;97104.14;;;5.92;34.59
47082;BME280;33066;49.296;14.470;2023-03-03T04:03:16;97102.08;;;5.85;34.19
47082;BME280;33066;49.296;14.470;2023-03-03T04:05:42;97102.43;;;5.82;33.88
47082;BME280;33066;49.296;14.470;2023-03-03T04:08:07;97102.04;;;5.87;33.82
47082;BME280;33066;49.296;14.470;2023-03-03T04:13:00;97104.18;;;6.23;33.36
47082;BME280;33066;49.296;14.470;2023-03-03T04:15:26;97105.45;;;6.21;33.47
47082;BME280;33066;49.296;14.470;2023-03-03T04:17:51;97107.84;;;6.30;33.32
47082;BME280;33066;49.296;14.470;2023-03-03T04:20:17;97105.36;;;6.23;33.33
47082;BME280;33066;49.296;14.470;2023-03-03T04:22:43;97103.21;;;6.10;33.18
47082;BME280;33066;49.296;14.470;2023-03-03T04:25:12;97101.36;;;6.13;33.12
47082;BME280;33066;49.296;14.470;2023-03-03T04:27:34;97104.22;;;6.07;33.25
47082;BME280;33066;49.296;14.470;2023-03-03T04:29:59;97108.50;;;6.45;33.23
47082;BME280;33066;49.296;14.470;2023-03-03T04:32:24;97107.84;;;6.30;33.19
47082;BME280;33066;49.296;14.470;2023-03-03T04:34:50;97112.89;;;6.18;33.22
47082;BME280;33066;49.296;14.470;2023-03-03T04:37:15;97110.38;;;6.37;33.12
47082;BME280;33066;49.296;14.470;2023-03-03T04:39:41;97108.18;;;6.24;33.24
47082;BME280;33066;49.296;14.470;2023-03-03T04:42:06;97104.86;;;5.90;33.41
47082;BME280;33066;49.296;14.470;2023-03-03T04:44:32;97104.82;;;5.79;33.55
47082;BME280;33066;49.296;14.470;2023-03-03T04:46:57;97106.55;;;5.96;33.59
47082;BME280;33066;49.296;14.470;2023-03-03T04:49:22;97107.50;;;5.98;33.57
47082;BME280;33066;49.296;14.470;2023-03-03T04:51:48;97107.71;;;5.70;33.82
47082;BME280;33066;49.296;14.470;2023-03-03T04:54:13;97108.15;;;5.82;33.62
47082;BME280;33066;49.296;14.470;2023-03-03T04:56:39;97106.04;;;5.77;33.78
47082;BME280;33066;49.296;14.470;2023-03-03T04:59:04;97105.70;;;5.83;33.69
47082;BME280;33066;49.296;14.470;2023-03-03T05:01:29;97102.82;;;5.93;33.78
47082;BME280;33066;49.296;14.470;2023-03-03T05:03:55;97102.90;;;6.12;33.95
47082;BME280;33066;49.296;14.470;2023-03-03T05:06:20;97105.80;;;5.82;34.21
47082;BME280;33066;49.296;14.470;2023-03-03T05:08:46;97105.99;;;5.89;34.38
47082;BME280;33066;49.296;14.470;2023-03-03T05:11:11;97104.78;;;6.05;34.49
47082;BME280;33066;49.296;14.470;2023-03-03T05:13:37;97106.52;;;6.14;33.57
47082;BME280;33066;49.296;14.470;2023-03-03T05:16:02;97106.24;;;5.76;33.39
47082;BME280;33066;49.296;14.470;2023-03-03T05:18:27;97110.14;;;5.79;33.57
47082;BME280;33066;49.296;14.470;2023-03-03T05:20:53;97108.98;;;5.84;33.30
47082;BME280;33066;49.296;14.470;2023-03-03T05:23:20;97114.12;;;6.07;33.31
47082;BME280;33066;49.296;14.470;2023-03-03T05:25:43;97116.19;;;5.48;33.46
47082;BME280;33066;49.296;14.470;2023-03-03T05:28:09;97113.59;;;6.00;33.55
47082;BME280;33066;49.296;14.470;2023-03-03T05:30:35;97113.16;;;6.04;33.41
47082;BME280;33066;49.296;14.470;2023-03-03T05:33:00;97118.84;;;5.34;33.47
47082;BME280;33066;49.296;14.470;2023-03-03T05:35:26;97126.66;;;5.93;33.80
47082;BME280;33066;49.296;14.470;2023-03-03T05:37:50;97129.98;;;6.00;34.54
47082;BME280;33066;49.296;14.470;2023-03-03T05:40:16;97131.97;;;6.09;35.02
47082;BME280;33066;49.296;14.470;2023-03-03T05:42:42;97135.71;;;5.73;34.10
47082;BME280;33066;49.296;14.470;2023-03-03T05:45:08;97140.00;;;5.78;33.53
47082;BME280;33066;49.296;14.470;2023-03-03T05:47:33;97138.25;;;5.93;33.82
47082;BME280;33066;49.296;14.470;2023-03-03T05:49:59;97136.09;;;5.98;33.27
47082;BME280;33066;49.296;14.470;2023-03-03T05:52:24;97130.99;;;6.03;32.83
47082;BME280;33066;49.296;14.470;2023-03-03T05:54:49;97133.13;;;6.12;32.90
47082;BME280;33066;49.296;14.470;2023-03-03T05:57:15;97133.04;;;6.38;32.58
47082;BME280;33066;49.296;14.470;2023-03-03T05:59:40;97136.47;;;6.16;32.82
47082;BME280;33066;49.296;14.470;2023-03-03T06:02:06;97142.01;;;6.18;32.70
47082;BME280;33066;49.296;14.470;2023-03-03T06:04:31;97147.02;;;6.18;32.65
47082;BME280;33066;49.296;14.470;2023-03-03T06:06:56;97146.93;;;6.07;32.58
47082;BME280;33066;49.296;14.470;2023-03-03T06:09:21;97152.42;;;6.33;32.34
47082;BME280;33066;49.296;14.470;2023-03-03T06:11:47;97149.77;;;6.27;32.39
47082;BME280;33066;49.296;14.470;2023-03-03T06:14:12;97146.35;;;6.60;32.48
47082;BME280;33066;49.296;14.470;2023-03-03T06:16:38;97148.53;;;6.21;32.50
47082;BME280;33066;49.296;14.470;2023-03-03T06:19:03;97156.66;;;6.06;32.52
47082;BME280;33066;49.296;14.470;2023-03-03T06:21:29;97155.85;;;5.96;32.76
47082;BME280;33066;49.296;14.470;2023-03-03T06:23:54;97153.95;;;5.95;33.03
47082;BME280;33066;49.296;14.470;2023-03-03T06:26:19;97155.85;;;6.10;32.97
47082;BME280;33066;49.296;14.470;2023-03-03T06:28:44;97161.80;;;6.23;32.84
47082;BME280;33066;49.296;14.470;2023-03-03T06:31:10;97163.75;;;6.09;32.88
47082;BME280;33066;49.296;14.470;2023-03-03T06:33:36;97170.82;;;6.14;32.88
47082;BME280;33066;49.296;14.470;2023-03-03T06:36:01;97175.67;;;6.14;32.89
47082;BME280;33066;49.296;14.470;2023-03-03T06:38:27;97183.36;;;6.41;33.04
47082;BME280;33066;49.296;14.470;2023-03-03T06:40:52;97193.75;;;6.32;33.18
47082;BME280;33066;49.296;14.470;2023-03-03T06:43:18;97188.43;;;5.10;32.94
47082;BME280;33066;49.296;14.470;2023-03-03T06:45:44;97181.96;;;7.10;31.81
47082;BME280;33066;49.296;14.470;2023-03-03T06:48:08;97183.10;;;7.35;32.09
47082;BME280;33066;49.296;14.470;2023-03-03T06:50:34;97184.58;;;7.08;32.47
47082;BME280;33066;49.296;14.470;2023-03-03T06:53:07;97180.80;;;7.07;32.64
47082;BME280;33066;49.296;14.470;2023-03-03T06:55:25;97180.28;;;6.56;32.65
47082;BME280;33066;49.296;14.470;2023-03-03T06:57:51;97180.42;;;7.10;32.65
47082;BME280;33066;49.296;14.470;2023-03-03T07:00:19;97181.16;;;7.01;32.59
47082;BME280;33066;49.296;14.470;2023-03-03T07:02:42;97176.87;;;6.89;33.01
47082;BME280;33066;49.296;14.470;2023-03-03T07:05:12;97180.98;;;7.06;33.18
47082;BME280;33066;49.296;14.470;2023-03-03T07:07:33;97184.77;;;7.38;34.07
47082;BME280;33066;49.296;14.470;2023-03-03T07:09:59;97189.49;;;6.90;33.01
47082;BME280;33066;49.296;14.470;2023-03-03T07:12:27;97192.38;;;6.97;33.19
47082;BME280;33066;49.296;14.470;2023-03-03T07:14:53;97191.85;;;7.13;33.35
47082;BME280;33066;49.296;14.470;2023-03-03T07:17:18;97195.60;;;7.36;34.25
47082;BME280;33066;49.296;14.470;2023-03-03T07:19:42;97203.32;;;7.11;34.56
47082;BME280;33066;49.296;14.470;2023-03-03T07:22:14;97210.43;;;7.29;34.36
47082;BME280;33066;49.296;14.470;2023-03-03T07:24:32;97215.83;;;7.42;33.44
47082;BME280;33066;49.296;14.470;2023-03-03T07:27:05;97218.21;;;7.67;33.57
47082;BME280;33066;49.296;14.470;2023-03-03T07:29:24;97213.51;;;7.73;33.27
47082;BME280;33066;49.296;14.470;2023-03-03T07:31:47;97210.49;;;7.56;33.27
47082;BME280;33066;49.296;14.470;2023-03-03T07:34:19;97215.42;;;7.60;33.15
47082;BME280;33066;49.296;14.470;2023-03-03T07:36:39;97221.20;;;7.72;33.32
47082;BME280;33066;49.296;14.470;2023-03-03T07:39:16;97219.96;;;7.84;33.19
47082;BME280;33066;49.296;14.470;2023-03-03T07:41:30;97226.09;;;7.90;33.44
47082;BME280;33066;49.296;14.470;2023-03-03T07:43:56;97232.02;;;7.96;33.26
47082;BME280;33066;49.296;14.470;2023-03-03T07:46:26;97237.50;;;7.93;33.83
47082;BME280;33066;49.296;14.470;2023-03-03T07:48:45;97240.56;;;8.07;33.67
47082;BME280;33066;49.296;14.470;2023-03-03T07:51:14;97246.61;;;7.89;33.72
47082;BME280;33066;49.296;14.470;2023-03-03T07:53:36;97249.54;;;8.21;33.53
47082;BME280;33066;49.296;14.470;2023-03-03T07:56:01;97250.41;;;8.27;34.06
47082;BME280;33066;49.296;14.470;2023-03-03T07:58:35;97248.53;;;8.57;34.28
47082;BME280;33066;49.296;14.470;2023-03-03T08:03:19;97243.58;;;8.76;32.99
47082;BME280;33066;49.296;14.470;2023-03-03T08:05:44;97249.64;;;8.23;32.42
47082;BME280;33066;49.296;14.470;2023-03-03T08:08:18;97259.17;;;8.34;31.99
47082;BME280;33066;49.296;14.470;2023-03-03T08:10:39;97259.50;;;8.02;32.10
47082;BME280;33066;49.296;14.470;2023-03-03T08:13:04;97256.41;;;8.24;32.10
47082;BME280;33066;49.296;14.470;2023-03-03T08:15:29;97256.69;;;8.00;31.95
47082;BME280;33066;49.296;14.470;2023-03-03T08:17:52;97254.76;;;8.27;32.01
47082;BME280;33066;49.296;14.470;2023-03-03T08:20:37;97253.86;;;8.52;32.06
47082;BME280;33066;49.296;14.470;2023-03-03T08:22:42;97249.49;;;8.52;32.01
47082;BME280;33066;49.296;14.470;2023-03-03T08:25:07;97246.44;;;8.43;31.78
47082;BME280;33066;49.296;14.470;2023-03-03T08:27:33;97246.91;;;8.53;31.83
47082;BME280;33066;49.296;14.470;2023-03-03T08:29:58;97245.51;;;8.69;31.59
47082;BME280;33066;49.296;14.470;2023-03-03T08:32:24;97246.62;;;8.74;31.42
47082;BME280;33066;49.296;14.470;2023-03-03T08:34:49;97244.06;;;8.85;31.31
47082;BME280;33066;49.296;14.470;2023-03-03T08:37:14;97245.03;;;8.91;31.18
47082;BME280;33066;49.296;14.470;2023-03-03T08:39:39;97243.25;;;8.86;31.31
47082;BME280;33066;49.296;14.470;2023-03-03T08:42:05;97235.14;;;8.98;31.26
47082;BME280;33066;49.296;14.470;2023-03-03T08:44:30;97233.84;;;9.12;31.20
47082;BME280;33066;49.296;14.470;2023-03-03T08:46:55;97239.96;;;9.30;31.10
47082;BME280;33066;49.296;14.470;2023-03-03T08:49:21;97238.99;;;9.17;30.92
47082;BME280;33066;49.296;14.470;2023-03-03T08:51:46;97237.47;;;9.28;31.06
47082;BME280;33066;49.296;14.470;2023-03-03T08:54:11;97230.88;;;9.25;31.03
47082;BME280;33066;49.296;14.470;2023-03-03T08:56:37;97231.68;;;9.55;30.98
47082;BME280;33066;49.296;14.470;2023-03-03T08:59:02;97228.18;;;9.45;30.94
47082;BME280;33066;49.296;14.470;2023-03-03T09:01:27;97220.31;;;9.89;30.95
47082;BME280;33066;49.296;14.470;2023-03-03T09:03:52;97220.57;;;9.49;31.13
47082;BME280;33066;49.296;14.470;2023-03-03T09:06:19;97229.62;;;9.59;31.82
47082;BME280;33066;49.296;14.470;2023-03-03T09:08:44;97240.07;;;9.91;32.58
47082;BME280;33066;49.296;14.470;2023-03-03T09:11:11;97241.58;;;9.48;32.13
47082;BME280;33066;49.296;14.470;2023-03-03T09:13:35;97240.61;;;9.78;32.95
47082;BME280;33066;49.296;14.470;2023-03-03T09:16:00;97243.53;;;9.85;31.99
47082;BME280;33066;49.296;14.470;2023-03-03T09:18:31;97243.73;;;9.59;31.80
47082;BME280;33066;49.296;14.470;2023-03-03T09:20:52;97240.28;;;9.87;31.45
47082;BME280;33066;49.296;14.470;2023-03-03T09:23:31;97240.34;;;9.81;30.99
47082;BME280;33066;49.296;14.470;2023-03-03T09:25:42;97240.74;;;10.12;30.93
47082;BME280;33066;49.296;14.470;2023-03-03T09:28:18;97243.53;;;10.23;31.10
47082;BME280;33066;49.296;14.470;2023-03-03T09:30:36;97241.12;;;10.49;30.89
47082;BME280;33066;49.296;14.470;2023-03-03T09:32:59;97241.39;;;10.47;30.25
47082;BME280;33066;49.296;14.470;2023-03-03T09:35:33;97239.34;;;10.45;30.87
47082;BME280;33066;49.296;14.470;2023-03-03T09:37:51;97239.61;;;10.43;30.25
47082;BME280;33066;49.296;14.470;2023-03-03T09:40:28;97238.14;;;10.95;30.45
47082;BME280;33066;49.296;14.470;2023-03-03T09:42:53;97234.53;;;10.62;30.04
47082;BME280;33066;49.296;14.470;2023-03-03T09:47:41;97230.92;;;10.90;29.50
47082;BME280;33066;49.296;14.470;2023-03-03T09:50:05;97231.00;;;11.01;29.32
47082;BME280;33066;49.296;14.470;2023-03-03T09:52:32;97228.37;;;11.15;29.44
47082;BME280;33066;49.296;14.470;2023-03-03T09:54:55;97230.75;;;11.23;29.76
47082;BME280;33066;49.296;14.470;2023-03-03T09:57:16;97231.89;;;11.21;29.11
47082;BME280;33066;49.296;14.470;2023-03-03T09:59:48;97228.68;;;11.29;28.98
47082;BME280;33066;49.296;14.470;2023-03-03T10:02:19;97233.02;;;11.36;28.60
47082;BME280;33066;49.296;14.470;2023-03-03T10:07:05;97234.91;;;11.68;28.90
47082;BME280;33066;49.296;14.470;2023-03-03T10:09:34;97233.65;;;11.57;27.98
47082;BME280;33066;49.296;14.470;2023-03-03T10:11:51;97231.17;;;11.82;27.47
47082;BME280;33066;49.296;14.470;2023-03-03T10:16:47;97234.62;;;11.95;28.08
47082;BME280;33066;49.296;14.470;2023-03-03T10:19:09;97230.76;;;11.87;27.49
47082;BME280;33066;49.296;14.470;2023-03-03T10:21:34;97235.61;;;12.24;28.12
47082;BME280;33066;49.296;14.470;2023-03-03T10:23:57;97233.80;;;12.26;27.88
47082;BME280;33066;49.296;14.470;2023-03-03T10:26:30;97235.64;;;12.35;27.67
47082;BME280;33066;49.296;14.470;2023-03-03T10:29:01;97233.43;;;12.21;27.40
47082;BME280;33066;49.296;14.470;2023-03-03T10:31:15;97231.33;;;12.41;27.21
47082;BME280;33066;49.296;14.470;2023-03-03T10:33:42;97233.71;;;12.61;27.86
47082;BME280;33066;49.296;14.470;2023-03-03T10:36:10;97235.84;;;13.08;26.78
47082;BME280;33066;49.296;14.470;2023-03-03T10:38:33;97236.46;;;13.60;27.46
47082;BME280;33066;49.296;14.470;2023-03-03T10:40:57;97234.72;;;13.26;26.39
47082;BME280;33066;49.296;14.470;2023-03-03T10:43:29;97233.60;;;13.79;26.02
47082;BME280;33066;49.296;14.470;2023-03-03T10:46:03;97224.90;;;14.20;25.83
47082;BME280;33066;49.296;14.470;2023-03-03T10:48:22;97222.32;;;14.25;25.29
47082;BME280;33066;49.296;14.470;2023-03-03T10:50:40;97221.05;;;14.36;25.20
47082;BME280;33066;49.296;14.470;2023-03-03T10:53:12;97216.39;;;14.83;24.88
47082;BME280;33066;49.296;14.470;2023-03-03T10:55:33;97213.75;;;15.23;24.47
47082;BME280;33066;49.296;14.470;2023-03-03T10:57:59;97215.89;;;15.43;24.39
47082;BME280;33066;49.296;14.470;2023-03-03T11:00:20;97218.82;;;15.61;24.44
47082;BME280;33066;49.296;14.470;2023-03-03T11:02:48;97210.35;;;16.05;23.36
47082;BME280;33066;49.296;14.470;2023-03-03T11:05:17;97210.43;;;16.18;22.91
47082;BME280;33066;49.296;14.470;2023-03-03T11:07:36;97200.34;;;16.43;22.61
47082;BME280;33066;49.296;14.470;2023-03-03T11:10:07;97199.03;;;16.54;22.22
47082;BME280;33066;49.296;14.470;2023-03-03T11:12:30;97192.80;;;16.58;22.01
47082;BME280;33066;49.296;14.470;2023-03-03T11:14:56;97190.62;;;17.22;21.97
47082;BME280;33066;49.296;14.470;2023-03-03T11:17:19;97190.10;;;17.41;21.72
47082;BME280;33066;49.296;14.470;2023-03-03T11:19:47;97187.42;;;17.54;21.27
47082;BME280;33066;49.296;14.470;2023-03-03T11:22:15;97185.90;;;17.78;20.97
47082;BME280;33066;49.296;14.470;2023-03-03T11:24:37;97181.35;;;17.92;20.46
47082;BME280;33066;49.296;14.470;2023-03-03T11:27:05;97183.24;;;17.91;20.06
47082;BME280;33066;49.296;14.470;2023-03-03T11:29:29;97184.04;;;18.21;19.86
47082;BME280;33066;49.296;14.470;2023-03-03T11:31:49;97177.98;;;18.30;19.70
47082;BME280;33066;49.296;14.470;2023-03-03T11:34:20;97174.02;;;18.74;19.82
47082;BME280;33066;49.296;14.470;2023-03-03T11:36:40;97169.68;;;18.78;19.48
47082;BME280;33066;49.296;14.470;2023-03-03T11:39:04;97165.55;;;18.83;19.71
47082;BME280;33066;49.296;14.470;2023-03-03T11:41:32;97163.02;;;19.29;19.24
47082;BME280;33066;49.296;14.470;2023-03-03T11:43:58;97157.23;;;18.97;18.78
47082;BME280;33066;49.296;14.470;2023-03-03T11:46:25;97157.55;;;19.16;18.63
47082;BME280;33066;49.296;14.470;2023-03-03T11:48:51;97153.73;;;19.33;18.42
47082;BME280;33066;49.296;14.470;2023-03-03T11:51:13;97155.42;;;19.35;17.77
47082;BME280;33066;49.296;14.470;2023-03-03T11:53:46;97151.17;;;19.44;17.39
47082;BME280;33066;49.296;14.470;2023-03-03T11:56:07;97147.09;;;19.88;17.49
47082;BME280;33066;49.296;14.470;2023-03-03T11:58:30;97143.21;;;19.57;17.49
47082;BME280;33066;49.296;14.470;2023-03-03T12:00:56;97139.98;;;20.06;17.16
47082;BME280;33066;49.296;14.470;2023-03-03T12:03:25;97138.45;;;19.90;17.16
47082;BME280;33066;49.296;14.470;2023-03-03T12:05:53;97135.33;;;19.93;16.86
47082;BME280;33066;49.296;14.470;2023-03-03T12:08:21;97133.68;;;20.38;17.34
47082;BME280;33066;49.296;14.470;2023-03-03T12:10:41;97124.71;;;20.85;17.32
47082;BME280;33066;49.296;14.470;2023-03-03T12:13:03;97127.09;;;20.52;15.85
47082;BME280;33066;49.296;14.470;2023-03-03T12:15:32;97121.44;;;20.95;14.99
47082;BME280;33066;49.296;14.470;2023-03-03T12:18:10;97120.41;;;20.78;16.20
47082;BME280;33066;49.296;14.470;2023-03-03T12:20:21;97119.66;;;21.09;15.43
47082;BME280;33066;49.296;14.470;2023-03-03T12:22:49;97123.45;;;21.06;15.62
47082;BME280;33066;49.296;14.470;2023-03-03T12:25:19;97124.31;;;21.03;15.00
47082;BME280;33066;49.296;14.470;2023-03-03T12:27:39;97125.75;;;21.54;15.57
47082;BME280;33066;49.296;14.470;2023-03-03T12:30:08;97125.89;;;21.58;15.60
47082;BME280;33066;49.296;14.470;2023-03-03T12:32:33;97122.32;;;22.05;15.40
47082;BME280;33066;49.296;14.470;2023-03-03T12:34:53;97119.77;;;22.25;15.73
47082;BME280;33066;49.296;14.470;2023-03-03T12:37:22;97115.10;;;22.63;15.67
47082;BME280;33066;49.296;14.470;2023-03-03T12:39:45;97120.91;;;22.79;16.26
47082;BME280;33066;49.296;14.470;2023-03-03T12:42:10;97116.25;;;22.77;16.33
47082;BME280;33066;49.296;14.470;2023-03-03T12:44:35;97110.46;;;22.96;16.36
47082;BME280;33066;49.296;14.470;2023-03-03T12:46:58;97114.75;;;23.04;16.30
47082;BME280;33066;49.296;14.470;2023-03-03T12:49:25;97115.82;;;22.90;16.26
47082;BME280;33066;49.296;14.470;2023-03-03T12:51:59;97115.94;;;22.77;16.05
47082;BME280;33066;49.296;14.470;2023-03-03T12:56:41;97115.64;;;23.71;15.75
47082;BME280;33066;49.296;14.470;2023-03-03T12:59:06;97115.48;;;23.86;15.46
47082;BME280;33066;49.296;14.470;2023-03-03T13:01:37;97116.02;;;24.01;14.83
47082;BME280;33066;49.296;14.470;2023-03-03T13:04:02;97110.64;;;24.26;14.48